Time;durP1;ratioP1;P1;durP2;ratioP2;P2;SDS_P1;SDS_P2;PMS_P1;PMS_P2;Temp;Humidity;BMP_temperature;BMP_pressure;BME280_temperature;BME280_humidity;BME280_pressure;Samples;Min_cycle;Max_cycle;Signal;HPM_P1;HPM_P2
2023/12/04 00:00:16;;;;;;;;;77.67;60.00;;;;;-0.71;50.35;100360.59;5151370;27;8925;-73
2023/12/04 00:03:05;;;;;;;;;80.67;62.00;;;;;-0.65;50.14;100367.72;5136710;27;9091;-73
2023/12/04 00:05:34;;;;;;;;;87.67;67.33;;;;;-0.63;49.86;100372.94;5151966;27;9180;-74
2023/12/04 00:08:03;;;;;;;;;76.00;61.75;;;;;-0.67;50.00;100363.28;5151976;27;9193;-74
2023/12/04 00:10:33;;;;;;;;;79.25;61.75;;;;;-0.66;50.08;100370.22;5133221;27;8883;-72
2023/12/04 00:13:02;;;;;;;;;73.00;60.50;;;;;-0.63;50.02;100360.03;5116910;27;8841;-76
2023/12/04 00:15:31;;;;;;;;;73.75;60.75;;;;;-0.65;49.99;100369.38;5133258;27;8951;-74
2023/12/04 00:18:00;;;;;;;;;76.00;60.33;;;;;-0.90;50.94;100373.59;5151009;27;8849;-76
2023/12/04 00:20:29;;;;;;;;;67.00;56.75;;;;;-0.80;50.10;100364.53;5133068;27;8936;-74
2023/12/04 00:22:59;;;;;;;;;73.50;59.25;;;;;-0.88;50.39;100374.56;5151602;27;8833;-72
2023/12/04 00:25:28;;;;;;;;;69.50;57.00;;;;;-0.87;50.33;100383.19;5151595;27;8916;-73
2023/12/04 00:27:58;;;;;;;;;76.25;59.50;;;;;-0.78;50.14;100386.13;5151175;27;8869;-74
2023/12/04 00:30:28;;;;;;;;;70.00;60.25;;;;;-0.95;50.29;100393.22;5151500;27;8833;-74
2023/12/04 00:32:58;;;;;;;;;73.75;61.50;;;;;-0.95;50.53;100393.22;5114992;27;8881;-72
2023/12/04 00:35:27;;;;;;;;;72.75;60.50;;;;;-0.99;50.49;100393.94;5115259;27;8849;-73
2023/12/04 00:37:56;;;;;;;;;74.25;62.50;;;;;-1.00;50.83;100389.56;5114860;27;8857;-72
2023/12/04 00:40:25;;;;;;;;;75.50;62.25;;;;;-0.87;50.55;100396.09;5098122;27;8887;-74
2023/12/04 00:42:54;;;;;;;;;75.00;60.00;;;;;-0.88;50.26;100395.22;5151213;27;8967;-74
2023/12/04 00:45:24;;;;;;;;;78.67;62.67;;;;;-0.88;50.16;100397.81;5151510;27;8872;-74
2023/12/04 00:47:53;;;;;;;;;80.67;66.00;;;;;-0.95;50.48;100396.66;5132529;27;9019;-72
2023/12/04 00:50:22;;;;;;;;;77.00;62.75;;;;;-0.87;50.42;100390.94;5132455;27;8946;-72
2023/12/04 00:52:51;;;;;;;;;80.75;64.00;;;;;-0.84;50.42;100394.53;5150803;27;8841;-74
2023/12/04 00:55:20;;;;;;;;;78.75;62.75;;;;;-0.82;50.13;100390.28;5151467;27;9648;-73
2023/12/04 00:57:49;;;;;;;;;77.25;60.50;;;;;-0.86;50.02;100387.50;5151116;27;8977;-74
2023/12/04 01:00:18;;;;;;;;;74.75;59.75;;;;;-0.96;50.25;100396.59;5151338;27;8959;-73
2023/12/04 01:02:49;;;;;;;;;71.00;58.00;;;;;-0.90;49.86;100391.69;5098019;27;8884;-72
2023/12/04 01:05:18;;;;;;;;;68.25;55.75;;;;;-0.88;49.98;100390.06;5151211;27;8861;-74
2023/12/04 01:07:46;;;;;;;;;72.75;60.00;;;;;-0.79;49.74;100389.53;5132702;27;8856;-72
2023/12/04 01:10:15;;;;;;;;;74.25;61.50;;;;;-0.81;49.94;100386.00;5151116;27;8973;-74
2023/12/04 01:12:44;;;;;;;;;79.00;64.33;;;;;-0.85;49.90;100386.72;5132123;27;8849;-72
2023/12/04 01:15:13;;;;;;;;;80.00;64.33;;;;;-0.85;49.66;100382.41;5150739;27;8995;-74
2023/12/04 01:17:42;;;;;;;;;85.00;66.33;;;;;-0.88;49.68;100378.84;5150767;27;9016;-74
2023/12/04 01:20:13;;;;;;;;;88.00;68.00;;;;;-0.84;49.61;100384.19;5150657;27;9190;-75
2023/12/04 01:22:42;;;;;;;;;83.00;66.33;;;;;-0.85;49.71;100387.59;5150550;27;9362;-73
2023/12/04 01:25:11;;;;;;;;;76.67;63.67;;;;;-0.85;50.07;100381.56;5150508;27;9234;-74
2023/12/04 01:27:40;;;;;;;;;83.67;67.33;;;;;-0.92;49.98;100389.06;5150133;27;9261;-72
2023/12/04 01:30:11;;;;;;;;;81.00;66.67;;;;;-0.87;49.90;100391.81;5130600;27;9152;-73
2023/12/04 01:32:39;;;;;;;;;80.00;63.33;;;;;-0.86;49.91;100391.00;5146911;27;8991;-74
2023/12/04 01:35:09;;;;;;;;;82.67;63.33;;;;;-0.85;49.92;100392.75;5087008;27;9121;-73
2023/12/04 01:37:39;;;;;;;;;74.00;61.67;;;;;-0.86;49.59;100387.50;5147287;27;9209;-73
2023/12/04 01:40:10;;;;;;;;;79.67;64.67;;;;;-0.87;50.15;100396.97;5149577;27;9162;-73
2023/12/04 01:42:38;;;;;;;;;73.67;61.67;;;;;-0.86;50.10;100383.25;5141470;27;9194;-74
2023/12/04 01:45:08;;;;;;;;;82.67;64.67;;;;;-0.86;50.04;100388.41;5131138;27;9001;-74
2023/12/04 01:47:38;;;;;;;;;77.25;62.75;;;;;-0.85;50.08;100391.88;5144869;27;9071;-74
2023/12/04 01:50:08;;;;;;;;;77.67;63.33;;;;;-0.84;49.44;100389.34;5140890;27;8919;-73
2023/12/04 01:52:40;;;;;;;;;76.75;63.00;;;;;-0.81;49.35;100380.84;5136446;27;9025;-73
2023/12/04 01:55:11;;;;;;;;;77.33;60.33;;;;;-0.86;49.92;100388.41;5141581;27;8841;-72
2023/12/04 01:57:40;;;;;;;;;69.67;56.67;;;;;-0.84;49.60;100380.72;5144742;27;8950;-74
2023/12/04 02:00:11;;;;;;;;;86.00;65.33;;;;;-0.88;49.70;100384.91;5149730;27;9252;-73
2023/12/04 02:02:41;;;;;;;;;79.33;64.33;;;;;-0.87;49.18;100384.06;5110940;27;9080;-72
2023/12/04 02:05:12;;;;;;;;;80.33;67.00;;;;;-0.86;49.41;100382.34;5141047;27;9262;-73
2023/12/04 02:07:43;;;;;;;;;85.33;64.00;;;;;-0.87;49.33;100381.47;5136711;27;9696;-76
2023/12/04 02:10:12;;;;;;;;;81.67;64.00;;;;;-0.90;49.64;100383.94;5128285;27;9088;-73
2023/12/04 02:12:42;;;;;;;;;78.33;63.33;;;;;-0.92;49.58;100388.16;5149356;27;9187;-74
2023/12/04 02:15:11;;;;;;;;;82.00;64.33;;;;;-0.89;49.29;100396.03;5126838;27;9224;-72
2023/12/04 02:17:41;;;;;;;;;83.67;66.00;;;;;-0.92;49.42;100395.91;5115477;27;9084;-73
2023/12/04 02:20:10;;;;;;;;;53.33;41.00;;;;;-0.93;49.17;100399.31;5134976;27;9116;-73
2023/12/04 02:22:39;;;;;;;;;82.67;66.00;;;;;-0.88;49.35;100391.75;5148616;27;9074;-73
2023/12/04 02:25:12;;;;;;;;;88.67;67.33;;;;;-0.92;49.11;100404.56;5095208;27;9366;-73
2023/12/04 02:28:06;;;;;;;;;53.67;48.33;;;;;-0.94;49.41;100405.28;5105880;27;9376;-72
2023/12/04 02:30:37;;;;;;;;;81.67;64.00;;;;;-0.98;49.35;100409.44;5147381;27;9332;-72
2023/12/04 02:33:08;;;;;;;;;76.00;62.67;;;;;-0.99;49.33;100401.66;5117366;27;9257;-72
2023/12/04 02:35:38;;;;;;;;;81.67;64.33;;;;;-1.00;49.15;100405.91;5147732;27;9227;-73
2023/12/04 02:38:08;;;;;;;;;83.33;66.00;;;;;-1.07;48.84;100418.53;5102353;27;9059;-72
2023/12/04 02:40:39;;;;;;;;;86.33;65.00;;;;;-1.05;48.83;100415.19;5086204;28;9227;-73
2023/12/04 02:43:08;;;;;;;;;80.67;64.67;;;;;-1.08;49.11;100414.19;5058934;28;9164;-74
2023/12/04 02:45:37;;;;;;;;;81.00;64.67;;;;;-1.05;49.22;100411.72;5088441;28;9070;-73
2023/12/04 02:48:06;;;;;;;;;78.67;63.00;;;;;-1.09;48.76;100421.03;5058662;28;9191;-72
2023/12/04 02:50:35;;;;;;;;;77.00;61.67;;;;;-1.12;49.14;100421.81;5071383;28;9175;-74
2023/12/04 02:53:04;;;;;;;;;82.33;63.67;;;;;-1.15;48.61;100413.94;5036419;28;9075;-74
2023/12/04 02:55:33;;;;;;;;;77.67;63.67;;;;;-1.13;48.83;100420.03;5088708;28;9013;-75
2023/12/04 02:58:03;;;;;;;;;77.67;63.00;;;;;-1.14;49.02;100418.28;5086336;28;10057;-72
2023/12/04 03:00:32;;;;;;;;;81.67;66.00;;;;;-1.13;48.92;100424.31;5035482;28;8981;-73
2023/12/04 03:03:02;;;;;;;;;68.50;55.75;;;;;-1.13;48.64;100424.31;5068776;28;9231;-74
2023/12/04 03:05:31;;;;;;;;;79.00;63.33;;;;;-1.18;49.02;100423.22;5068506;28;8964;-74
2023/12/04 03:08:00;;;;;;;;;66.67;56.33;;;;;-1.22;49.08;100430.00;5068720;28;9093;-73
2023/12/04 03:10:29;;;;;;;;;77.00;62.25;;;;;-1.28;48.84;100424.56;5068211;28;8937;-72
2023/12/04 03:12:58;;;;;;;;;78.33;60.67;;;;;-1.29;48.72;100423.69;5060749;27;8857;-73
2023/12/04 03:15:30;;;;;;;;;75.00;60.67;;;;;-1.29;48.86;100420.25;5129879;27;9649;-74
2023/12/04 03:17:59;;;;;;;;;83.67;66.00;;;;;-1.30;49.00;100415.88;5120438;27;9050;-73
2023/12/04 03:20:29;;;;;;;;;73.25;61.00;;;;;-1.33;48.78;100408.91;5153143;27;10189;-74
2023/12/04 03:22:58;;;;;;;;;73.25;58.75;;;;;-1.33;48.91;100410.63;5133616;27;8833;-75
2023/12/04 03:25:27;;;;;;;;;71.00;57.00;;;;;-1.34;48.58;100414.00;5152942;27;8901;-73
2023/12/04 03:27:55;;;;;;;;;75.25;60.00;;;;;-1.34;48.66;100424.31;5116308;27;9028;-72
2023/12/04 03:30:24;;;;;;;;;73.00;60.25;;;;;-1.34;49.01;100421.75;5134018;27;9496;-72
2023/12/04 03:32:55;;;;;;;;;69.75;58.00;;;;;-1.32;48.85;100427.84;5151908;27;8841;-72
2023/12/04 03:35:24;;;;;;;;;75.67;61.67;;;;;-1.37;48.92;100429.34;5134101;27;8841;-72
2023/12/04 03:37:53;;;;;;;;;82.33;63.33;;;;;-1.37;48.50;100427.66;5134134;27;8907;-73
2023/12/04 03:40:22;;;;;;;;;82.33;64.00;;;;;-1.38;48.79;100430.16;5152352;27;9115;-73
2023/12/04 03:42:50;;;;;;;;;89.00;69.67;;;;;-1.40;48.51;100424.94;5152087;27;9101;-73
2023/12/04 03:45:20;;;;;;;;;80.67;64.33;;;;;-1.38;48.84;100420.72;5152349;27;9338;-73
2023/12/04 03:47:48;;;;;;;;;86.33;67.67;;;;;-1.38;48.80;100420.72;5151990;27;9146;-74
2023/12/04 03:50:19;;;;;;;;;81.00;63.33;;;;;-1.41;48.79;100420.63;5152183;27;9144;-72
2023/12/04 03:52:48;;;;;;;;;77.33;60.33;;;;;-1.49;48.92;100427.13;5115422;27;9080;-74
2023/12/04 03:55:19;;;;;;;;;68.67;57.33;;;;;-1.63;49.72;100418.81;5133681;27;9113;-73
2023/12/04 03:57:48;;;;;;;;;77.33;63.33;;;;;-1.58;48.88;100419.91;5151909;27;8965;-73
2023/12/04 04:00:18;;;;;;;;;69.67;55.67;;;;;-1.87;49.98;100422.09;5152259;27;9085;-74
2023/12/04 04:02:46;;;;;;;;;75.33;62.33;;;;;-1.89;49.90;100425.44;5151750;27;9099;-73
2023/12/04 04:05:16;;;;;;;;;63.00;51.50;;;;;-1.85;49.57;100424.75;5133645;27;9173;-72
2023/12/04 04:07:46;;;;;;;;;73.00;60.33;;;;;-1.77;49.98;100425.97;5151749;27;8825;-72
2023/12/04 04:10:15;;;;;;;;;78.33;61.67;;;;;-1.83;49.83;100432.56;5133333;27;8940;-73
2023/12/04 04:12:45;;;;;;;;;83.33;64.67;;;;;-1.96;49.98;100436.28;5152006;27;9876;-73
2023/12/04 04:15:14;;;;;;;;;75.00;60.67;;;;;-1.92;49.84;100431.34;5151765;27;8930;-71
2023/12/04 04:17:43;;;;;;;;;82.67;65.67;;;;;-1.90;50.28;100433.97;5151965;27;9050;-76
2023/12/04 04:20:12;;;;;;;;;81.67;64.33;;;;;-1.89;50.13;100434.03;5151617;27;9424;-73
2023/12/04 04:22:41;;;;;;;;;84.33;64.00;;;;;-1.87;50.17;100431.53;5098448;27;9326;-74
2023/12/04 04:25:12;;;;;;;;;87.33;66.67;;;;;-1.81;49.65;100431.78;5151451;27;9156;-73
2023/12/04 04:27:41;;;;;;;;;81.33;65.67;;;;;-1.79;49.89;100435.31;5151600;27;9189;-72
2023/12/04 04:30:10;;;;;;;;;84.67;68.67;;;;;-1.77;49.66;100431.13;5151089;27;9325;-74
2023/12/04 04:32:39;;;;;;;;;82.67;66.00;;;;;-1.72;49.38;100437.34;5152706;27;9322;-72
2023/12/04 04:35:09;;;;;;;;;95.25;74.00;;;;;-1.77;49.31;100443.13;5116350;27;9343;-73
2023/12/04 04:37:38;;;;;;;;;88.50;71.75;;;;;-1.81;49.58;100442.09;5151316;27;9790;-72
2023/12/04 04:40:12;;;;;;;;;87.50;70.50;;;;;-1.78;49.30;100444.81;5151218;27;10719;-72
2023/12/04 04:42:41;;;;;;;;;81.67;61.00;;;;;-1.76;48.94;100440.63;5151112;27;9631;-73
2023/12/04 04:45:10;;;;;;;;;82.67;64.00;;;;;-1.76;49.46;100444.91;5150672;27;9092;-75
2023/12/04 04:47:39;;;;;;;;;73.33;60.33;;;;;-1.74;49.14;100451.00;5150859;27;9238;-72
2023/12/04 04:50:09;;;;;;;;;77.33;62.33;;;;;-1.76;48.97;100438.03;5114955;27;9217;-74
2023/12/04 04:52:38;;;;;;;;;82.33;64.33;;;;;-1.73;48.71;100438.19;5151075;27;9019;-75
2023/12/04 04:55:07;;;;;;;;;70.33;56.33;;;;;-1.67;48.45;100429.84;5150855;27;9170;-75
2023/12/04 04:57:37;;;;;;;;;79.00;63.67;;;;;-1.72;48.88;100432.19;5097634;27;9000;-73
2023/12/04 05:00:09;;;;;;;;;73.25;59.50;;;;;-1.69;48.96;100431.47;5131794;27;9818;-72
2023/12/04 05:02:38;;;;;;;;;78.67;63.00;;;;;-1.74;48.82;100431.25;5081237;27;8861;-74
2023/12/04 05:05:07;;;;;;;;;71.50;58.75;;;;;-1.74;48.80;100431.25;5150874;27;9010;-72
2023/12/04 05:07:36;;;;;;;;;88.00;67.33;;;;;-1.74;48.91;100438.97;5150976;27;8911;-73
2023/12/04 05:10:06;;;;;;;;;71.75;61.00;;;;;-1.76;48.99;100437.16;5097815;27;9247;-74
2023/12/04 05:12:38;;;;;;;;;77.00;61.33;;;;;-1.72;49.18;100444.22;5150553;27;9915;-74
2023/12/04 05:15:07;;;;;;;;;77.00;62.00;;;;;-1.74;48.56;100444.13;5150717;27;9041;-73
2023/12/04 05:17:36;;;;;;;;;74.00;60.00;;;;;-1.76;49.11;100437.16;5150503;27;9080;-73
2023/12/04 05:20:07;;;;;;;;;77.67;62.67;;;;;-1.78;49.05;100433.66;5150231;27;9084;-75
2023/12/04 05:22:36;;;;;;;;;67.25;55.50;;;;;-1.75;48.69;100439.81;5098231;27;8998;-73
2023/12/04 05:25:06;;;;;;;;;75.50;61.75;;;;;-1.73;49.14;100442.44;5114206;27;8860;-74
2023/12/04 05:27:35;;;;;;;;;76.33;59.00;;;;;-1.73;48.77;100432.13;5064536;27;9693;-74
2023/12/04 05:30:07;;;;;;;;;73.75;59.50;;;;;-1.75;48.30;100429.50;5096843;27;8939;-74
2023/12/04 05:32:36;;;;;;;;;78.00;63.33;;;;;-1.77;48.34;100440.53;5150079;27;8841;-75
2023/12/04 05:35:06;;;;;;;;;87.00;68.00;;;;;-1.73;48.57;100432.13;5149757;27;9092;-73
2023/12/04 05:37:35;;;;;;;;;105.25;85.00;;;;;-1.72;48.34;100439.94;5097751;27;9440;-73
2023/12/04 05:40:05;;;;;;;;;100.50;77.50;;;;;-1.70;48.94;100429.69;5150199;27;10387;-73
2023/12/04 05:42:34;;;;;;;;;88.00;66.67;;;;;-1.66;48.39;100441.88;5131942;27;10076;-73
2023/12/04 05:45:07;;;;;;;;;80.67;63.67;;;;;-1.63;48.64;100436.00;5149796;27;9441;-74
2023/12/04 05:47:36;;;;;;;;;84.33;64.00;;;;;-1.66;48.92;100436.72;5150172;27;9394;-72
2023/12/04 05:50:07;;;;;;;;;81.00;65.00;;;;;-1.64;48.36;100432.53;5110156;27;9163;-73
2023/12/04 05:52:36;;;;;;;;;84.33;64.33;;;;;-1.60;48.32;100430.97;5076894;27;9466;-74
2023/12/04 05:55:05;;;;;;;;;91.75;70.75;;;;;-1.63;48.68;100431.72;5127883;27;9214;-75
2023/12/04 05:57:34;;;;;;;;;88.00;70.00;;;;;-1.64;48.47;100434.22;5076499;27;9593;-74
2023/12/04 06:00:12;;;;;;;;;91.00;68.00;;;;;-1.60;48.64;100434.41;5110863;27;9620;-73
2023/12/04 06:02:42;;;;;;;;;89.50;69.50;;;;;-1.61;48.50;100439.53;5046672;27;9536;-73
2023/12/04 06:05:11;;;;;;;;;73.67;57.67;;;;;-1.63;48.65;100434.28;5138713;27;9702;-73
2023/12/04 06:07:41;;;;;;;;;85.33;69.00;;;;;-1.61;48.84;100442.97;5131084;27;9241;-73
2023/12/04 06:10:10;;;;;;;;;91.67;69.67;;;;;-1.62;48.67;100448.94;5085185;28;9398;-73
2023/12/04 06:12:39;;;;;;;;;87.25;69.25;;;;;-1.59;48.21;100440.47;5085249;28;9379;-74
2023/12/04 06:15:10;;;;;;;;;98.00;75.00;;;;;-1.53;48.74;100438.16;5085899;28;9616;-74
2023/12/04 06:17:40;;;;;;;;;89.75;70.25;;;;;-1.53;48.20;100439.00;5089262;28;9961;-73
2023/12/04 06:20:11;;;;;;;;;92.50;71.75;;;;;-1.51;48.12;100441.66;5089922;28;9625;-75
2023/12/04 06:22:41;;;;;;;;;87.50;68.75;;;;;-1.48;48.22;100444.38;5089202;28;9776;-74
2023/12/04 06:25:11;;;;;;;;;90.33;68.00;;;;;-1.48;48.01;100436.66;5089506;28;9598;-72
2023/12/04 06:27:40;;;;;;;;;90.75;70.25;;;;;-1.41;48.24;100436.09;5055743;28;9406;-74
2023/12/04 06:30:12;;;;;;;;;94.50;72.25;;;;;-1.49;47.63;100440.91;5048435;28;10260;-73
2023/12/04 06:32:41;;;;;;;;;95.75;74.00;;;;;-1.54;47.81;100442.44;5045088;28;9831;-72
2023/12/04 06:35:12;;;;;;;;;84.33;68.00;;;;;-1.67;48.16;100437.56;5051802;28;9811;-75
2023/12/04 06:37:44;;;;;;;;;72.00;56.00;;;;;-1.59;47.95;100446.50;5048496;28;9148;-73
2023/12/04 06:40:14;;;;;;;;;76.33;61.00;;;;;-1.57;47.88;100441.41;5031991;28;9250;-75
2023/12/04 06:42:43;;;;;;;;;90.25;69.50;;;;;-1.51;47.93;100447.69;5068542;28;9181;-73
2023/12/04 06:45:15;;;;;;;;;94.75;70.50;;;;;-1.38;47.91;100445.66;5068472;28;9569;-74
2023/12/04 06:47:46;;;;;;;;;95.00;71.25;;;;;-1.30;47.82;100444.25;5068279;28;9484;-73
2023/12/04 06:50:16;;;;;;;;;90.75;72.25;;;;;-1.14;47.42;100438.91;5081815;28;9663;-73
2023/12/04 06:52:45;;;;;;;;;98.00;72.50;;;;;-1.22;46.88;100432.59;5021866;28;9702;-73
2023/12/04 06:55:14;;;;;;;;;97.75;76.00;;;;;-1.01;46.71;100432.56;5088503;28;9689;-72
2023/12/04 06:57:43;;;;;;;;;100.50;78.50;;;;;-1.17;47.10;100440.50;5071478;28;10625;-73
2023/12/04 07:00:16;;;;;;;;;95.75;71.75;;;;;-1.34;47.10;100435.50;5038452;27;9912;-73
2023/12/04 07:02:51;;;;;;;;;88.50;72.25;;;;;-1.66;47.44;100439.31;5152753;27;9955;-74
2023/12/04 07:05:21;;;;;;;;;91.25;71.75;;;;;-1.40;47.63;100431.81;5146916;27;9707;-74
2023/12/04 07:07:50;;;;;;;;;98.75;77.25;;;;;-1.23;47.05;100438.53;5132088;27;9826;-72
2023/12/04 07:10:19;;;;;;;;;79.00;64.75;;;;;-1.23;46.74;100437.66;5132383;27;10038;-70
2023/12/04 07:12:48;;;;;;;;;88.00;67.75;;;;;-1.27;47.07;100430.63;5131743;27;9683;-74
2023/12/04 07:15:18;;;;;;;;;86.67;71.33;;;;;-0.98;46.90;100435.25;5108055;27;9554;-75
2023/12/04 07:17:48;;;;;;;;;94.50;73.00;;;;;-0.81;46.59;100441.09;5129533;27;9471;-74
2023/12/04 07:20:17;;;;;;;;;90.75;71.25;;;;;-0.59;45.81;100439.38;5146698;27;10084;-74
2023/12/04 07:22:46;;;;;;;;;94.75;73.50;;;;;-0.37;45.91;100433.28;5152146;27;9786;-73
2023/12/04 07:25:16;;;;;;;;;89.00;69.67;;;;;-0.26;44.90;100433.69;5152080;27;9941;-73
2023/12/04 07:27:45;;;;;;;;;87.50;70.25;;;;;-0.12;45.11;100437.69;5133867;27;10349;-75
2023/12/04 07:30:14;;;;;;;;;93.50;72.75;;;;;0.02;45.17;100433.88;5141638;27;9857;-74
2023/12/04 07:32:48;;;;;;;;;95.00;72.25;;;;;0.05;44.52;100425.38;5131917;27;9860;-74
2023/12/04 07:35:18;;;;;;;;;94.50;75.00;;;;;-0.16;44.27;100435.81;5131612;27;9901;-72
2023/12/04 07:37:47;;;;;;;;;100.25;76.25;;;;;0.11;44.36;100429.88;5112889;27;10219;-73
2023/12/04 07:40:16;;;;;;;;;49.50;44.00;;;;;0.20;44.12;100425.91;5138211;27;10135;-74
2023/12/04 07:42:45;;;;;;;;;98.50;75.75;;;;;0.05;43.98;100422.78;5150853;27;10328;-75
2023/12/04 07:45:15;;;;;;;;;88.33;69.67;;;;;0.23;43.96;100428.59;5082278;27;10230;-74
2023/12/04 07:47:44;;;;;;;;;76.00;62.33;;;;;-0.07;43.93;100428.38;5151871;27;9539;-73
2023/12/04 07:50:15;;;;;;;;;59.75;51.25;;;;;0.31;43.84;100423.69;5151503;27;9020;-74
2023/12/04 07:52:44;;;;;;;;;71.50;56.50;;;;;0.42;43.56;100424.94;5098538;27;8845;-73
2023/12/04 07:55:12;;;;;;;;;74.00;59.67;;;;;0.42;42.93;100434.41;5132554;27;8983;-74
2023/12/04 07:57:42;;;;;;;;;81.75;62.75;;;;;0.40;43.16;100421.44;5130326;27;8998;-75
2023/12/04 08:00:11;;;;;;;;;67.50;54.25;;;;;0.51;42.88;100421.81;5121065;27;8873;-75
2023/12/04 08:02:44;;;;;;;;;72.25;58.75;;;;;0.37;43.06;100423.03;5133031;27;8880;-74
2023/12/04 08:05:16;;;;;;;;;67.67;54.00;;;;;0.49;43.27;100425.19;5151352;27;8845;-73
2023/12/04 08:07:45;;;;;;;;;72.50;56.00;;;;;0.74;42.80;100434.63;5151682;27;8931;-74
2023/12/04 08:10:14;;;;;;;;;76.25;61.25;;;;;0.80;42.04;100427.06;5151709;27;8942;-75
2023/12/04 08:12:46;;;;;;;;;57.25;49.50;;;;;0.69;42.31;100421.56;5132420;27;9627;-74
2023/12/04 08:15:15;;;;;;;;;73.50;56.75;;;;;0.92;42.39;100432.66;5064345;27;8895;-74
2023/12/04 08:17:44;;;;;;;;;58.00;47.50;;;;;1.04;41.60;100433.06;5151467;27;8869;-74
2023/12/04 08:20:13;;;;;;;;;58.50;45.50;;;;;0.90;41.97;100429.13;5150444;27;8877;-72
2023/12/04 08:22:54;;;;;;;;;66.25;51.50;;;;;1.08;41.55;100435.78;5151423;27;8876;-79
2023/12/04 08:25:23;;;;;;;;;43.75;39.75;;;;;0.92;40.38;100435.25;5118147;27;8884;-78
2023/12/04 08:27:53;;;;;;;;;51.25;46.50;;;;;0.97;41.16;100431.13;5132941;27;8950;-80
2023/12/04 08:30:22;;;;;;;;;53.50;46.50;;;;;0.90;41.28;100438.59;5151445;27;8969;-78
2023/12/04 08:32:51;;;;;;;;;45.25;41.25;;;;;1.17;41.23;100439.53;5151677;27;8837;-79
2023/12/04 08:35:19;;;;;;;;;45.25;40.00;;;;;1.16;40.60;100442.97;5150728;27;8837;-78
2023/12/04 08:37:49;;;;;;;;;41.00;38.25;;;;;1.34;40.88;100436.59;5097931;27;8829;-79
2023/12/04 08:40:19;;;;;;;;;45.25;40.25;;;;;1.53;40.75;100440.63;5151323;27;8880;-78
2023/12/04 08:42:49;;;;;;;;;38.25;33.50;;;;;1.67;39.55;100447.06;5150985;27;8841;-79
2023/12/04 08:45:18;;;;;;;;;44.25;40.25;;;;;1.54;39.54;100440.69;5132290;27;8888;-77
2023/12/04 08:47:49;;;;;;;;;37.00;32.00;;;;;1.74;39.66;100436.06;5150728;27;8837;-78
2023/12/04 08:50:18;;;;;;;;;30.50;28.00;;;;;1.76;39.56;100438.72;5150706;27;8929;-79
2023/12/04 08:52:48;;;;;;;;;16.50;16.00;;;;;1.82;38.18;100439.78;5132519;27;9589;-78
2023/12/04 08:55:17;;;;;;;;;24.50;18.25;;;;;1.58;37.05;100442.53;5150898;27;8856;-79
2023/12/04 08:57:47;;;;;;;;;27.00;25.50;;;;;1.85;37.70;100444.16;5150464;27;8929;-78
2023/12/04 09:00:18;;;;;;;;;24.50;23.50;;;;;1.60;37.34;100442.56;5132567;27;8979;-77
2023/12/04 09:02:48;;;;;;;;;27.75;21.50;;;;;1.82;37.10;100439.78;5152487;27;8852;-78
2023/12/04 09:05:32;;;;;;;;;24.00;20.40;;;;;1.94;36.73;100430.59;5150657;27;8856;-78
2023/12/04 09:08:01;;;;;;;;;23.25;20.50;;;;;2.11;37.39;100426.75;5150290;27;8850;-79
2023/12/04 09:10:50;;;;;;;;;33.75;29.75;;;;;2.04;36.80;100419.63;5131425;27;9606;-79
2023/12/04 09:13:41;;;;;;;;;31.00;29.25;;;;;2.10;36.44;100411.16;5150383;27;8817;-77
2023/12/04 09:16:10;;;;;;;;;21.40;20.00;;;;;1.48;35.96;100417.16;5150701;27;8932;-79
2023/12/04 09:18:39;;;;;;;;;25.40;22.20;;;;;1.33;35.65;100417.59;5097705;27;8837;-79
2023/12/04 09:21:09;;;;;;;;;25.75;25.75;;;;;1.03;37.67;100414.88;5080161;27;9618;-81
2023/12/04 09:23:38;;;;;;;;;26.25;25.50;;;;;1.50;37.33;100414.59;5115085;27;8836;-78
2023/12/04 09:26:07;;;;;;;;;27.25;26.75;;;;;1.66;37.34;100410.78;5132154;27;8897;-79
2023/12/04 09:28:37;;;;;;;;;27.75;24.75;;;;;1.89;37.38;100406.25;5114571;27;8843;-79
2023/12/04 09:31:09;;;;;;;;;38.75;36.25;;;;;2.08;37.66;100394.66;5064373;27;8878;-76
2023/12/04 09:33:38;;;;;;;;;40.00;37.75;;;;;2.07;37.53;100393.78;5136310;27;9558;-77
2023/12/04 09:36:08;;;;;;;;;34.00;30.75;;;;;2.19;37.26;100390.66;5132968;27;8857;-78
2023/12/04 09:38:38;;;;;;;;;43.00;37.33;;;;;2.29;37.18;100389.16;5080987;27;8896;-78
2023/12/04 09:41:09;;;;;;;;;35.67;34.33;;;;;2.31;36.81;100385.78;5132384;27;8841;-78
2023/12/04 09:43:41;;;;;;;;;38.50;34.00;;;;;2.33;37.18;100391.88;5098812;27;8885;-78
2023/12/04 09:46:12;;;;;;;;;36.50;28.50;;;;;2.38;36.87;100379.03;5150553;27;8841;-77
2023/12/04 09:48:42;;;;;;;;;39.50;35.75;;;;;2.32;37.07;100382.34;5131739;27;8944;-76
2023/12/04 09:51:13;;;;;;;;;31.25;28.25;;;;;2.34;36.41;100379.81;5153067;27;8957;-79
2023/12/04 09:53:43;;;;;;;;;28.75;24.00;;;;;2.47;35.92;100378.41;5150691;27;8857;-76
2023/12/04 09:56:12;;;;;;;;;27.50;27.50;;;;;2.60;35.66;100380.47;5097189;27;8849;-80
2023/12/04 09:58:42;;;;;;;;;30.00;24.75;;;;;2.54;35.23;100376.00;5131590;27;8841;-77
2023/12/04 10:01:13;;;;;;;;;37.25;30.00;;;;;2.66;35.56;100371.97;5150173;27;8833;-78
2023/12/04 10:03:43;;;;;;;;;16.50;10.25;;;;;2.65;35.36;100365.00;5131299;27;8925;-79
2023/12/04 10:06:18;;;;;;;;;34.00;30.50;;;;;2.73;35.33;100360.84;5149685;27;8861;-79
2023/12/04 10:08:47;;;;;;;;;34.25;30.50;;;;;2.82;35.71;100361.09;5149863;27;9704;-78
2023/12/04 10:11:16;;;;;;;;;22.50;22.00;;;;;2.68;35.38;100355.56;5131155;27;8857;-78
2023/12/04 10:13:45;;;;;;;;;26.75;26.75;;;;;2.86;34.91;100354.25;5097084;27;8853;-78
2023/12/04 10:16:36;;;;;;;;;27.50;24.50;;;;;3.15;35.17;100355.78;5150047;27;8853;-79
2023/12/04 10:19:20;;;;;;;;;19.75;19.75;;;;;3.06;35.76;100342.59;5131813;27;8969;-78
2023/12/04 10:21:51;;;;;;;;;31.00;28.25;;;;;3.03;35.38;100347.72;5149670;27;8857;-78
2023/12/04 10:24:32;;;;;;;;;39.75;36.75;;;;;3.02;35.75;100338.19;5131727;27;8894;-79
2023/12/04 10:27:01;;;;;;;;;33.25;31.50;;;;;3.05;36.05;100343.44;5086072;28;8964;-78
2023/12/04 10:29:41;;;;;;;;;36.25;34.50;;;;;3.08;35.35;100329.66;5069277;28;8861;-79
2023/12/04 10:32:12;;;;;;;;;36.25;31.25;;;;;3.17;35.28;100324.66;5069452;28;8968;-78
2023/12/04 10:34:43;;;;;;;;;32.75;31.00;;;;;3.10;34.44;100328.81;5069557;28;8866;-79
2023/12/04 10:37:12;;;;;;;;;36.25;32.75;;;;;3.24;34.93;100320.47;5087418;28;8909;-76
2023/12/04 10:39:51;;;;;;;;;34.50;26.50;;;;;3.37;34.78;100318.16;5093319;28;8911;-78
2023/12/04 10:42:28;;;;;;;;;22.75;19.50;;;;;3.44;34.51;100326.13;5091523;28;8841;-77
2023/12/04 10:44:58;;;;;;;;;29.75;27.25;;;;;3.30;34.64;100318.88;5036900;28;8861;-78
2023/12/04 10:47:30;;;;;;;;;30.25;28.00;;;;;3.47;34.12;100313.16;5052608;28;8861;-76
2023/12/04 10:50:01;;;;;;;;;32.50;31.00;;;;;3.47;33.94;100310.56;5085183;28;8949;-79
2023/12/04 10:52:31;;;;;;;;;28.25;25.25;;;;;3.60;34.03;100315.19;5085038;28;8829;-77
2023/12/04 10:55:01;;;;;;;;;28.00;26.75;;;;;3.71;33.50;100305.84;5085342;28;8896;-78
2023/12/04 10:57:38;;;;;;;;;40.50;34.25;;;;;3.83;34.30;100300.03;5099222;27;8964;-77
2023/12/04 11:00:10;;;;;;;;;36.50;32.00;;;;;3.66;34.15;100293.59;5149420;27;8873;-77
2023/12/04 11:02:46;;;;;;;;;39.00;34.75;;;;;3.69;34.60;100294.53;5152204;27;8864;-77
2023/12/04 11:05:19;;;;;;;;;36.00;33.25;;;;;3.67;34.06;100293.66;5134876;27;8872;-79
2023/12/04 11:07:52;;;;;;;;;35.75;32.75;;;;;3.49;34.77;100293.31;5135066;27;8860;-78
2023/12/04 11:10:47;;;;;;;;;40.50;36.50;;;;;3.68;34.27;100284.16;5153930;27;8876;-79
2023/12/04 11:13:22;;;;;;;;;62.75;50.00;;;;;3.55;35.15;100275.22;5135100;27;9003;-77
2023/12/04 11:15:53;;;;;;;;;59.75;47.50;;;;;3.71;35.57;100278.97;5134559;27;8853;-78
2023/12/04 11:18:26;;;;;;;;;67.50;54.00;;;;;3.71;35.61;100272.03;5153001;27;8857;-79
2023/12/04 11:20:59;;;;;;;;;41.25;39.00;;;;;3.70;35.12;100266.84;5134002;27;8861;-78
2023/12/04 11:23:29;;;;;;;;;48.25;40.25;;;;;3.70;34.35;100267.72;5134126;27;8848;-78
2023/12/04 11:26:00;;;;;;;;;21.75;20.50;;;;;3.47;34.40;100261.19;5133889;27;9627;-77
2023/12/04 11:28:31;;;;;;;;;38.25;36.75;;;;;3.60;34.95;100252.81;5134124;27;8868;-77
2023/12/04 11:31:01;;;;;;;;;31.00;31.00;;;;;3.49;34.44;100244.78;5134865;27;8847;-78
2023/12/04 11:33:35;;;;;;;;;31.25;30.25;;;;;3.54;34.15;100240.56;5152690;27;8829;-79